sensor_id;sensor_type;location;lat;lon;timestamp;P1;durP1;ratioP1;P2;durP2;ratioP2
17714;SDS011;8977;50.902;4.314;2023-09-19T00:00:55;7.32;;;2.00;;
17714;SDS011;8977;50.902;4.314;2023-09-19T00:03:23;7.30;;;2.40;;
17714;SDS011;8977;50.902;4.314;2023-09-19T00:05:52;7.50;;;2.08;;
17714;SDS011;8977;50.902;4.314;2023-09-19T00:08:20;8.77;;;2.33;;
17714;SDS011;8977;50.902;4.314;2023-09-19T00:10:49;8.40;;;2.20;;
17714;SDS011;8977;50.902;4.314;2023-09-19T00:13:17;6.22;;;1.88;;
17714;SDS011;8977;50.902;4.314;2023-09-19T00:15:45;7.28;;;2.30;;
17714;SDS011;8977;50.902;4.314;2023-09-19T00:18:14;8.23;;;2.22;;
17714;SDS011;8977;50.902;4.314;2023-09-19T00:20:42;6.00;;;1.95;;
17714;SDS011;8977;50.902;4.314;2023-09-19T00:23:14;10.63;;;2.28;;
17714;SDS011;8977;50.902;4.314;2023-09-19T00:25:41;8.90;;;2.28;;
17714;SDS011;8977;50.902;4.314;2023-09-19T00:28:08;8.95;;;2.35;;
17714;SDS011;8977;50.902;4.314;2023-09-19T00:30:35;8.95;;;2.78;;
17714;SDS011;8977;50.902;4.314;2023-09-19T00:33:03;8.23;;;2.30;;
17714;SDS011;8977;50.902;4.314;2023-09-19T00:35:33;8.57;;;2.35;;
17714;SDS011;8977;50.902;4.314;2023-09-19T00:38:00;7.80;;;1.95;;
17714;SDS011;8977;50.902;4.314;2023-09-19T00:40:29;10.68;;;2.50;;
17714;SDS011;8977;50.902;4.314;2023-09-19T00:42:57;7.82;;;1.95;;
17714;SDS011;8977;50.902;4.314;2023-09-19T00:45:26;6.68;;;2.17;;
17714;SDS011;8977;50.902;4.314;2023-09-19T00:47:53;8.90;;;2.20;;
17714;SDS011;8977;50.902;4.314;2023-09-19T00:50:21;8.23;;;2.35;;
17714;SDS011;8977;50.902;4.314;2023-09-19T00:52:52;8.55;;;2.38;;
17714;SDS011;8977;50.902;4.314;2023-09-19T00:55:21;7.03;;;1.80;;
17714;SDS011;8977;50.902;4.314;2023-09-19T00:57:50;9.98;;;2.10;;
17714;SDS011;8977;50.902;4.314;2023-09-19T01:00:18;9.20;;;2.10;;
17714;SDS011;8977;50.902;4.314;2023-09-19T01:02:46;10.38;;;2.30;;
17714;SDS011;8977;50.902;4.314;2023-09-19T01:05:13;5.50;;;2.20;;
17714;SDS011;8977;50.902;4.314;2023-09-19T01:07:42;9.20;;;2.13;;
17714;SDS011;8977;50.902;4.314;2023-09-19T01:10:11;8.50;;;2.95;;
17714;SDS011;8977;50.902;4.314;2023-09-19T01:12:45;8.35;;;2.60;;
17714;SDS011;8977;50.902;4.314;2023-09-19T01:15:21;8.52;;;2.33;;
17714;SDS011;8977;50.902;4.314;2023-09-19T01:17:57;7.72;;;2.08;;
17714;SDS011;8977;50.902;4.314;2023-09-19T01:20:34;8.10;;;2.55;;
17714;SDS011;8977;50.902;4.314;2023-09-19T01:23:10;8.88;;;2.83;;
17714;SDS011;8977;50.902;4.314;2023-09-19T01:28:39;9.70;;;2.20;;
17714;SDS011;8977;50.902;4.314;2023-09-19T01:31:21;8.50;;;2.38;;
17714;SDS011;8977;50.902;4.314;2023-09-19T01:33:56;8.27;;;2.28;;
17714;SDS011;8977;50.902;4.314;2023-09-19T01:36:26;7.35;;;2.30;;
17714;SDS011;8977;50.902;4.314;2023-09-19T01:38:59;8.15;;;1.90;;
17714;SDS011;8977;50.902;4.314;2023-09-19T01:41:37;8.32;;;2.40;;
17714;SDS011;8977;50.902;4.314;2023-09-19T01:44:18;7.03;;;2.33;;
17714;SDS011;8977;50.902;4.314;2023-09-19T01:46:52;8.43;;;2.30;;
17714;SDS011;8977;50.902;4.314;2023-09-19T01:49:27;8.90;;;2.40;;
17714;SDS011;8977;50.902;4.314;2023-09-19T01:52:04;10.55;;;2.85;;
17714;SDS011;8977;50.902;4.314;2023-09-19T01:54:40;9.75;;;2.53;;
17714;SDS011;8977;50.902;4.314;2023-09-19T01:57:15;12.00;;;2.78;;
17714;SDS011;8977;50.902;4.314;2023-09-19T01:59:48;11.00;;;2.55;;
17714;SDS011;8977;50.902;4.314;2023-09-19T02:02:19;9.57;;;2.28;;
17714;SDS011;8977;50.902;4.314;2023-09-19T02:04:48;11.48;;;2.58;;
17714;SDS011;8977;50.902;4.314;2023-09-19T02:07:16;7.93;;;2.47;;
17714;SDS011;8977;50.902;4.314;2023-09-19T02:09:43;5.35;;;2.13;;
17714;SDS011;8977;50.902;4.314;2023-09-19T02:12:10;9.35;;;2.00;;
17714;SDS011;8977;50.902;4.314;2023-09-19T02:14:38;9.60;;;2.58;;
17714;SDS011;8977;50.902;4.314;2023-09-19T02:17:06;10.35;;;2.58;;
17714;SDS011;8977;50.902;4.314;2023-09-19T02:19:38;10.18;;;2.17;;
17714;SDS011;8977;50.902;4.314;2023-09-19T02:22:06;8.02;;;2.30;;
17714;SDS011;8977;50.902;4.314;2023-09-19T02:24:35;9.40;;;2.90;;
17714;SDS011;8977;50.902;4.314;2023-09-19T02:27:03;9.30;;;2.20;;
17714;SDS011;8977;50.902;4.314;2023-09-19T02:29:32;7.40;;;1.88;;
17714;SDS011;8977;50.902;4.314;2023-09-19T02:32:00;8.73;;;2.50;;
17714;SDS011;8977;50.902;4.314;2023-09-19T02:34:27;8.95;;;2.08;;
17714;SDS011;8977;50.902;4.314;2023-09-19T02:36:56;11.88;;;2.50;;
17714;SDS011;8977;50.902;4.314;2023-09-19T02:39:23;8.00;;;2.22;;
17714;SDS011;8977;50.902;4.314;2023-09-19T02:41:50;9.80;;;2.33;;
17714;SDS011;8977;50.902;4.314;2023-09-19T02:44:17;10.70;;;2.50;;
17714;SDS011;8977;50.902;4.314;2023-09-19T02:46:45;12.27;;;2.75;;
17714;SDS011;8977;50.902;4.314;2023-09-19T02:49:12;9.88;;;2.72;;
17714;SDS011;8977;50.902;4.314;2023-09-19T02:51:39;13.32;;;2.60;;
17714;SDS011;8977;50.902;4.314;2023-09-19T02:54:08;9.77;;;2.58;;
17714;SDS011;8977;50.902;4.314;2023-09-19T02:56:36;7.82;;;2.22;;
17714;SDS011;8977;50.902;4.314;2023-09-19T02:59:03;9.73;;;2.78;;
17714;SDS011;8977;50.902;4.314;2023-09-19T03:01:30;6.78;;;2.53;;
17714;SDS011;8977;50.902;4.314;2023-09-19T03:03:58;10.38;;;2.40;;
17714;SDS011;8977;50.902;4.314;2023-09-19T03:06:25;9.05;;;2.85;;
17714;SDS011;8977;50.902;4.314;2023-09-19T03:08:53;8.38;;;2.30;;
17714;SDS011;8977;50.902;4.314;2023-09-19T03:11:23;8.82;;;2.30;;
17714;SDS011;8977;50.902;4.314;2023-09-19T03:13:53;11.90;;;2.35;;
17714;SDS011;8977;50.902;4.314;2023-09-19T03:16:20;5.72;;;2.00;;
17714;SDS011;8977;50.902;4.314;2023-09-19T03:18:48;4.40;;;2.03;;
17714;SDS011;8977;50.902;4.314;2023-09-19T03:21:15;7.95;;;2.65;;
17714;SDS011;8977;50.902;4.314;2023-09-19T03:23:44;9.93;;;2.63;;
17714;SDS011;8977;50.902;4.314;2023-09-19T03:26:12;11.45;;;2.33;;
17714;SDS011;8977;50.902;4.314;2023-09-19T03:28:42;8.05;;;2.25;;
17714;SDS011;8977;50.902;4.314;2023-09-19T03:31:11;8.02;;;1.92;;
17714;SDS011;8977;50.902;4.314;2023-09-19T03:33:38;8.88;;;2.47;;
17714;SDS011;8977;50.902;4.314;2023-09-19T03:36:05;8.75;;;1.85;;
17714;SDS011;8977;50.902;4.314;2023-09-19T03:38:32;11.40;;;2.33;;
17714;SDS011;8977;50.902;4.314;2023-09-19T03:41:02;8.27;;;1.90;;
17714;SDS011;8977;50.902;4.314;2023-09-19T03:43:29;5.82;;;1.88;;
17714;SDS011;8977;50.902;4.314;2023-09-19T03:46:02;8.57;;;2.05;;
17714;SDS011;8977;50.902;4.314;2023-09-19T03:48:30;6.32;;;2.33;;
17714;SDS011;8977;50.902;4.314;2023-09-19T03:50:57;8.82;;;2.15;;
17714;SDS011;8977;50.902;4.314;2023-09-19T03:53:24;8.98;;;2.40;;
17714;SDS011;8977;50.902;4.314;2023-09-19T03:55:51;9.32;;;2.60;;
17714;SDS011;8977;50.902;4.314;2023-09-19T03:58:18;12.82;;;2.28;;
17714;SDS011;8977;50.902;4.314;2023-09-19T04:00:45;9.63;;;2.40;;
17714;SDS011;8977;50.902;4.314;2023-09-19T04:03:14;7.15;;;2.25;;
17714;SDS011;8977;50.902;4.314;2023-09-19T04:05:45;8.27;;;2.53;;
17714;SDS011;8977;50.902;4.314;2023-09-19T04:08:13;7.28;;;2.58;;
17714;SDS011;8977;50.902;4.314;2023-09-19T04:10:41;11.98;;;2.47;;
17714;SDS011;8977;50.902;4.314;2023-09-19T04:13:09;8.60;;;2.40;;
17714;SDS011;8977;50.902;4.314;2023-09-19T04:15:37;5.72;;;1.98;;
17714;SDS011;8977;50.902;4.314;2023-09-19T04:18:05;9.43;;;2.60;;
17714;SDS011;8977;50.902;4.314;2023-09-19T04:20:33;11.38;;;2.42;;
17714;SDS011;8977;50.902;4.314;2023-09-19T04:23:00;8.38;;;2.33;;
17714;SDS011;8977;50.902;4.314;2023-09-19T04:25:27;6.18;;;2.03;;
17714;SDS011;8977;50.902;4.314;2023-09-19T04:27:54;7.78;;;1.88;;
17714;SDS011;8977;50.902;4.314;2023-09-19T04:30:21;8.93;;;1.95;;
17714;SDS011;8977;50.902;4.314;2023-09-19T04:32:48;10.57;;;2.58;;
17714;SDS011;8977;50.902;4.314;2023-09-19T04:35:16;10.68;;;2.45;;
17714;SDS011;8977;50.902;4.314;2023-09-19T04:37:45;11.80;;;2.33;;
17714;SDS011;8977;50.902;4.314;2023-09-19T04:40:13;9.25;;;2.90;;
17714;SDS011;8977;50.902;4.314;2023-09-19T04:42:42;8.07;;;2.15;;
17714;SDS011;8977;50.902;4.314;2023-09-19T04:45:09;9.02;;;2.75;;
17714;SDS011;8977;50.902;4.314;2023-09-19T04:47:37;7.85;;;2.47;;
17714;SDS011;8977;50.902;4.314;2023-09-19T04:50:05;8.38;;;2.33;;
17714;SDS011;8977;50.902;4.314;2023-09-19T04:52:38;9.30;;;2.53;;
17714;SDS011;8977;50.902;4.314;2023-09-19T04:55:09;10.35;;;3.00;;
17714;SDS011;8977;50.902;4.314;2023-09-19T04:57:42;9.05;;;2.42;;
17714;SDS011;8977;50.902;4.314;2023-09-19T05:00:11;10.10;;;2.28;;
17714;SDS011;8977;50.902;4.314;2023-09-19T05:02:40;10.13;;;2.17;;
17714;SDS011;8977;50.902;4.314;2023-09-19T05:05:07;9.88;;;2.50;;
17714;SDS011;8977;50.902;4.314;2023-09-19T05:07:36;6.68;;;2.08;;
17714;SDS011;8977;50.902;4.314;2023-09-19T05:10:03;9.55;;;2.50;;
17714;SDS011;8977;50.902;4.314;2023-09-19T05:12:33;6.43;;;2.03;;
17714;SDS011;8977;50.902;4.314;2023-09-19T05:15:01;9.25;;;2.20;;
17714;SDS011;8977;50.902;4.314;2023-09-19T05:17:29;8.63;;;2.17;;
17714;SDS011;8977;50.902;4.314;2023-09-19T05:19:56;8.55;;;2.08;;
17714;SDS011;8977;50.902;4.314;2023-09-19T05:22:23;11.32;;;2.67;;
17714;SDS011;8977;50.902;4.314;2023-09-19T05:24:50;7.45;;;2.00;;
17714;SDS011;8977;50.902;4.314;2023-09-19T05:27:18;11.50;;;2.30;;
17714;SDS011;8977;50.902;4.314;2023-09-19T05:29:47;9.70;;;2.38;;
17714;SDS011;8977;50.902;4.314;2023-09-19T05:32:16;8.95;;;2.38;;
17714;SDS011;8977;50.902;4.314;2023-09-19T05:34:44;11.48;;;2.58;;
17714;SDS011;8977;50.902;4.314;2023-09-19T05:37:12;8.30;;;1.90;;
17714;SDS011;8977;50.902;4.314;2023-09-19T05:39:40;9.30;;;2.40;;
17714;SDS011;8977;50.902;4.314;2023-09-19T05:42:07;6.25;;;2.10;;
17714;SDS011;8977;50.902;4.314;2023-09-19T05:44:34;8.95;;;2.65;;
17714;SDS011;8977;50.902;4.314;2023-09-19T05:47:03;8.52;;;2.42;;
17714;SDS011;8977;50.902;4.314;2023-09-19T05:49:30;13.25;;;2.53;;
17714;SDS011;8977;50.902;4.314;2023-09-19T05:51:58;9.45;;;2.15;;
17714;SDS011;8977;50.902;4.314;2023-09-19T05:54:26;7.65;;;2.30;;
17714;SDS011;8977;50.902;4.314;2023-09-19T05:56:53;9.07;;;2.40;;
17714;SDS011;8977;50.902;4.314;2023-09-19T05:59:20;8.80;;;2.00;;
17714;SDS011;8977;50.902;4.314;2023-09-19T06:01:47;8.75;;;2.33;;
17714;SDS011;8977;50.902;4.314;2023-09-19T06:04:16;6.35;;;2.13;;
17714;SDS011;8977;50.902;4.314;2023-09-19T06:06:44;13.30;;;3.65;;
17714;SDS011;8977;50.902;4.314;2023-09-19T06:09:13;7.90;;;2.13;;
17714;SDS011;8977;50.902;4.314;2023-09-19T06:11:41;12.07;;;3.00;;
17714;SDS011;8977;50.902;4.314;2023-09-19T06:14:08;11.35;;;2.30;;
17714;SDS011;8977;50.902;4.314;2023-09-19T06:16:35;8.95;;;2.47;;
17714;SDS011;8977;50.902;4.314;2023-09-19T06:19:03;8.02;;;2.58;;
17714;SDS011;8977;50.902;4.314;2023-09-19T06:21:33;7.32;;;1.92;;
17714;SDS011;8977;50.902;4.314;2023-09-19T06:24:00;9.38;;;2.33;;
17714;SDS011;8977;50.902;4.314;2023-09-19T06:26:26;9.32;;;2.13;;
17714;SDS011;8977;50.902;4.314;2023-09-19T06:28:54;9.98;;;2.45;;
17714;SDS011;8977;50.902;4.314;2023-09-19T06:31:22;8.25;;;2.22;;
17714;SDS011;8977;50.902;4.314;2023-09-19T06:33:51;9.57;;;2.17;;
17714;SDS011;8977;50.902;4.314;2023-09-19T06:36:18;5.53;;;1.90;;
17714;SDS011;8977;50.902;4.314;2023-09-19T06:38:46;5.80;;;1.75;;
17714;SDS011;8977;50.902;4.314;2023-09-19T06:41:16;12.50;;;2.30;;
17714;SDS011;8977;50.902;4.314;2023-09-19T06:43:43;8.73;;;2.10;;
17714;SDS011;8977;50.902;4.314;2023-09-19T06:46:10;10.00;;;1.92;;
17714;SDS011;8977;50.902;4.314;2023-09-19T06:48:38;9.27;;;2.20;;
17714;SDS011;8977;50.902;4.314;2023-09-19T06:51:05;8.43;;;2.05;;
17714;SDS011;8977;50.902;4.314;2023-09-19T06:53:33;5.25;;;1.73;;
17714;SDS011;8977;50.902;4.314;2023-09-19T06:56:02;7.75;;;1.90;;
17714;SDS011;8977;50.902;4.314;2023-09-19T06:58:29;9.18;;;2.38;;
17714;SDS011;8977;50.902;4.314;2023-09-19T07:00:56;7.95;;;1.95;;
17714;SDS011;8977;50.902;4.314;2023-09-19T07:03:23;8.15;;;1.85;;
17714;SDS011;8977;50.902;4.314;2023-09-19T07:05:51;9.18;;;2.40;;
17714;SDS011;8977;50.902;4.314;2023-09-19T07:08:21;7.70;;;2.50;;
17714;SDS011;8977;50.902;4.314;2023-09-19T07:10:48;6.72;;;1.92;;
17714;SDS011;8977;50.902;4.314;2023-09-19T07:13:20;9.50;;;2.00;;
17714;SDS011;8977;50.902;4.314;2023-09-19T07:15:47;8.35;;;2.65;;
17714;SDS011;8977;50.902;4.314;2023-09-19T07:18:15;12.30;;;2.50;;
17714;SDS011;8977;50.902;4.314;2023-09-19T07:20:43;7.65;;;2.20;;
17714;SDS011;8977;50.902;4.314;2023-09-19T07:23:14;7.43;;;2.10;;
17714;SDS011;8977;50.902;4.314;2023-09-19T07:25:41;8.77;;;2.25;;
17714;SDS011;8977;50.902;4.314;2023-09-19T07:28:08;6.43;;;2.15;;
17714;SDS011;8977;50.902;4.314;2023-09-19T07:30:37;9.25;;;2.30;;
17714;SDS011;8977;50.902;4.314;2023-09-19T07:33:04;8.77;;;3.42;;
17714;SDS011;8977;50.902;4.314;2023-09-19T07:35:32;7.57;;;2.47;;
17714;SDS011;8977;50.902;4.314;2023-09-19T07:37:59;6.82;;;2.10;;
17714;SDS011;8977;50.902;4.314;2023-09-19T07:40:27;8.63;;;2.22;;
17714;SDS011;8977;50.902;4.314;2023-09-19T07:42:55;7.85;;;2.50;;
17714;SDS011;8977;50.902;4.314;2023-09-19T07:45:26;9.60;;;2.50;;
17714;SDS011;8977;50.902;4.314;2023-09-19T07:47:56;10.98;;;2.53;;
17714;SDS011;8977;50.902;4.314;2023-09-19T07:50:25;7.28;;;2.30;;
17714;SDS011;8977;50.902;4.314;2023-09-19T07:52:52;9.82;;;2.20;;
17714;SDS011;8977;50.902;4.314;2023-09-19T07:55:19;7.15;;;2.25;;
17714;SDS011;8977;50.902;4.314;2023-09-19T07:57:49;10.88;;;2.40;;
17714;SDS011;8977;50.902;4.314;2023-09-19T08:00:16;10.70;;;2.72;;
17714;SDS011;8977;50.902;4.314;2023-09-19T08:02:43;9.75;;;2.50;;
17714;SDS011;8977;50.902;4.314;2023-09-19T08:05:12;9.50;;;2.55;;
17714;SDS011;8977;50.902;4.314;2023-09-19T08:07:42;9.13;;;3.30;;
17714;SDS011;8977;50.902;4.314;2023-09-19T08:10:10;6.88;;;2.30;;
17714;SDS011;8977;50.902;4.314;2023-09-19T08:12:41;10.63;;;2.80;;
17714;SDS011;8977;50.902;4.314;2023-09-19T08:15:11;7.28;;;2.22;;
17714;SDS011;8977;50.902;4.314;2023-09-19T08:17:39;7.10;;;2.40;;
17714;SDS011;8977;50.902;4.314;2023-09-19T08:20:07;8.75;;;2.15;;
17714;SDS011;8977;50.902;4.314;2023-09-19T08:22:43;14.25;;;3.13;;
17714;SDS011;8977;50.902;4.314;2023-09-19T08:25:13;12.88;;;2.78;;
17714;SDS011;8977;50.902;4.314;2023-09-19T08:27:42;8.30;;;2.13;;
17714;SDS011;8977;50.902;4.314;2023-09-19T08:30:13;12.10;;;2.75;;
17714;SDS011;8977;50.902;4.314;2023-09-19T08:32:40;8.88;;;3.15;;
17714;SDS011;8977;50.902;4.314;2023-09-19T08:35:08;9.88;;;2.90;;
17714;SDS011;8977;50.902;4.314;2023-09-19T08:37:36;11.85;;;2.90;;
17714;SDS011;8977;50.902;4.314;2023-09-19T08:40:05;8.25;;;2.75;;
17714;SDS011;8977;50.902;4.314;2023-09-19T08:42:47;7.10;;;2.75;;
17714;SDS011;8977;50.902;4.314;2023-09-19T08:45:18;14.73;;;2.97;;
17714;SDS011;8977;50.902;4.314;2023-09-19T08:47:47;8.05;;;2.05;;
17714;SDS011;8977;50.902;4.314;2023-09-19T08:50:29;9.43;;;2.25;;
17714;SDS011;8977;50.902;4.314;2023-09-19T08:52:56;8.65;;;2.05;;
17714;SDS011;8977;50.902;4.314;2023-09-19T08:55:29;8.20;;;2.63;;
17714;SDS011;8977;50.902;4.314;2023-09-19T08:57:59;9.68;;;2.83;;
17714;SDS011;8977;50.902;4.314;2023-09-19T09:00:29;7.35;;;1.95;;
17714;SDS011;8977;50.902;4.314;2023-09-19T09:02:58;6.07;;;2.05;;
17714;SDS011;8977;50.902;4.314;2023-09-19T09:05:27;6.15;;;1.92;;
17714;SDS011;8977;50.902;4.314;2023-09-19T09:07:55;6.28;;;2.50;;
17714;SDS011;8977;50.902;4.314;2023-09-19T09:10:22;11.80;;;2.38;;
17714;SDS011;8977;50.902;4.314;2023-09-19T09:12:52;9.85;;;3.00;;
17714;SDS011;8977;50.902;4.314;2023-09-19T09:15:20;9.68;;;2.45;;
17714;SDS011;8977;50.902;4.314;2023-09-19T09:17:48;9.23;;;2.25;;
17714;SDS011;8977;50.902;4.314;2023-09-19T09:20:18;9.30;;;2.40;;
17714;SDS011;8977;50.902;4.314;2023-09-19T09:22:51;7.65;;;2.35;;
17714;SDS011;8977;50.902;4.314;2023-09-19T09:25:20;7.28;;;1.67;;
17714;SDS011;8977;50.902;4.314;2023-09-19T09:27:59;11.02;;;2.05;;
17714;SDS011;8977;50.902;4.314;2023-09-19T09:30:33;5.82;;;1.95;;
17714;SDS011;8977;50.902;4.314;2023-09-19T09:33:08;8.27;;;1.92;;
17714;SDS011;8977;50.902;4.314;2023-09-19T09:35:36;9.15;;;2.45;;
17714;SDS011;8977;50.902;4.314;2023-09-19T09:38:06;7.47;;;2.20;;
17714;SDS011;8977;50.902;4.314;2023-09-19T09:40:45;8.45;;;2.10;;
17714;SDS011;8977;50.902;4.314;2023-09-19T09:43:34;6.93;;;1.52;;
17714;SDS011;8977;50.902;4.314;2023-09-19T09:46:07;4.50;;;1.42;;
17714;SDS011;8977;50.902;4.314;2023-09-19T09:49:10;6.38;;;1.73;;
17714;SDS011;8977;50.902;4.314;2023-09-19T09:51:58;5.05;;;1.60;;
17714;SDS011;8977;50.902;4.314;2023-09-19T09:54:30;6.20;;;1.90;;
17714;SDS011;8977;50.902;4.314;2023-09-19T09:57:02;7.63;;;1.65;;
17714;SDS011;8977;50.902;4.314;2023-09-19T09:59:46;8.60;;;2.00;;
17714;SDS011;8977;50.902;4.314;2023-09-19T10:02:15;5.63;;;1.65;;
17714;SDS011;8977;50.902;4.314;2023-09-19T10:04:49;5.80;;;1.90;;
17714;SDS011;8977;50.902;4.314;2023-09-19T10:07:27;7.80;;;1.40;;
17714;SDS011;8977;50.902;4.314;2023-09-19T10:10:01;7.93;;;2.03;;
17714;SDS011;8977;50.902;4.314;2023-09-19T10:12:43;14.25;;;2.20;;
17714;SDS011;8977;50.902;4.314;2023-09-19T10:15:15;4.35;;;1.55;;
17714;SDS011;8977;50.902;4.314;2023-09-19T10:17:45;4.40;;;1.30;;
17714;SDS011;8977;50.902;4.314;2023-09-19T10:20:13;6.60;;;1.20;;
17714;SDS011;8977;50.902;4.314;2023-09-19T10:23:06;6.07;;;1.95;;
17714;SDS011;8977;50.902;4.314;2023-09-19T10:25:36;6.97;;;1.67;;
17714;SDS011;8977;50.902;4.314;2023-09-19T10:28:05;6.70;;;1.73;;
17714;SDS011;8977;50.902;4.314;2023-09-19T10:30:37;3.72;;;1.70;;
17714;SDS011;8977;50.902;4.314;2023-09-19T10:33:09;8.00;;;1.45;;
17714;SDS011;8977;50.902;4.314;2023-09-19T10:35:37;5.60;;;1.42;;
17714;SDS011;8977;50.902;4.314;2023-09-19T10:38:06;6.72;;;1.50;;
17714;SDS011;8977;50.902;4.314;2023-09-19T10:40:36;4.03;;;1.00;;
17714;SDS011;8977;50.902;4.314;2023-09-19T10:43:10;4.32;;;1.83;;
17714;SDS011;8977;50.902;4.314;2023-09-19T10:45:41;4.40;;;1.67;;
17714;SDS011;8977;50.902;4.314;2023-09-19T10:48:12;4.63;;;0.82;;
17714;SDS011;8977;50.902;4.314;2023-09-19T10:50:42;4.38;;;1.10;;
17714;SDS011;8977;50.902;4.314;2023-09-19T10:53:12;3.67;;;1.20;;
17714;SDS011;8977;50.902;4.314;2023-09-19T10:55:40;4.72;;;1.10;;
17714;SDS011;8977;50.902;4.314;2023-09-19T10:58:24;5.40;;;1.42;;
17714;SDS011;8977;50.902;4.314;2023-09-19T11:00:57;5.35;;;1.30;;
17714;SDS011;8977;50.902;4.314;2023-09-19T11:03:37;5.93;;;1.77;;
17714;SDS011;8977;50.902;4.314;2023-09-19T11:06:09;5.85;;;1.23;;
17714;SDS011;8977;50.902;4.314;2023-09-19T11:08:52;8.73;;;1.80;;
17714;SDS011;8977;50.902;4.314;2023-09-19T11:11:41;4.03;;;1.38;;
17714;SDS011;8977;50.902;4.314;2023-09-19T11:14:14;6.13;;;1.50;;
17714;SDS011;8977;50.902;4.314;2023-09-19T11:20:23;4.95;;;1.20;;
17714;SDS011;8977;50.902;4.314;2023-09-19T11:23:23;4.18;;;1.40;;
17714;SDS011;8977;50.902;4.314;2023-09-19T11:25:53;5.60;;;1.52;;
17714;SDS011;8977;50.902;4.314;2023-09-19T11:28:36;8.05;;;2.00;;
17714;SDS011;8977;50.902;4.314;2023-09-19T11:34:42;5.85;;;1.50;;
17714;SDS011;8977;50.902;4.314;2023-09-19T11:40:45;4.95;;;1.48;;
17714;SDS011;8977;50.902;4.314;2023-09-19T11:43:29;5.53;;;1.42;;
17714;SDS011;8977;50.902;4.314;2023-09-19T11:46:05;5.45;;;1.38;;
17714;SDS011;8977;50.902;4.314;2023-09-19T11:48:33;4.32;;;1.10;;
17714;SDS011;8977;50.902;4.314;2023-09-19T11:51:13;5.20;;;1.20;;
17714;SDS011;8977;50.902;4.314;2023-09-19T11:53:53;4.85;;;1.20;;
17714;SDS011;8977;50.902;4.314;2023-09-19T11:56:26;3.90;;;1.13;;
17714;SDS011;8977;50.902;4.314;2023-09-19T11:58:54;3.35;;;1.63;;
17714;SDS011;8977;50.902;4.314;2023-09-19T12:01:24;3.63;;;1.00;;
17714;SDS011;8977;50.902;4.314;2023-09-19T12:03:54;4.45;;;1.25;;
17714;SDS011;8977;50.902;4.314;2023-09-19T12:06:23;4.22;;;1.25;;
17714;SDS011;8977;50.902;4.314;2023-09-19T12:08:51;5.03;;;1.15;;
17714;SDS011;8977;50.902;4.314;2023-09-19T12:11:19;3.40;;;1.02;;
17714;SDS011;8977;50.902;4.314;2023-09-19T12:13:50;5.95;;;1.10;;
17714;SDS011;8977;50.902;4.314;2023-09-19T12:16:18;4.43;;;1.40;;
17714;SDS011;8977;50.902;4.314;2023-09-19T12:18:48;3.42;;;1.65;;
17714;SDS011;8977;50.902;4.314;2023-09-19T12:21:22;4.85;;;1.55;;
17714;SDS011;8977;50.902;4.314;2023-09-19T12:23:58;5.20;;;1.40;;
17714;SDS011;8977;50.902;4.314;2023-09-19T12:26:26;4.38;;;1.50;;
17714;SDS011;8977;50.902;4.314;2023-09-19T12:28:56;4.32;;;1.25;;
17714;SDS011;8977;50.902;4.314;2023-09-19T12:31:24;3.90;;;1.30;;
17714;SDS011;8977;50.902;4.314;2023-09-19T12:33:55;4.57;;;1.27;;
17714;SDS011;8977;50.902;4.314;2023-09-19T12:36:24;4.50;;;1.25;;
17714;SDS011;8977;50.902;4.314;2023-09-19T12:38:55;7.38;;;1.75;;
17714;SDS011;8977;50.902;4.314;2023-09-19T12:41:24;3.97;;;1.05;;
17714;SDS011;8977;50.902;4.314;2023-09-19T12:43:52;4.57;;;0.95;;
17714;SDS011;8977;50.902;4.314;2023-09-19T12:46:21;9.10;;;1.58;;
17714;SDS011;8977;50.902;4.314;2023-09-19T12:51:43;4.40;;;1.40;;
17714;SDS011;8977;50.902;4.314;2023-09-19T12:54:11;2.63;;;0.85;;
17714;SDS011;8977;50.902;4.314;2023-09-19T12:56:40;4.28;;;1.60;;
17714;SDS011;8977;50.902;4.314;2023-09-19T12:59:09;3.50;;;1.35;;
17714;SDS011;8977;50.902;4.314;2023-09-19T13:01:40;4.30;;;1.00;;
17714;SDS011;8977;50.902;4.314;2023-09-19T13:04:12;3.05;;;1.73;;
17714;SDS011;8977;50.902;4.314;2023-09-19T13:06:43;2.80;;;1.15;;
17714;SDS011;8977;50.902;4.314;2023-09-19T13:09:11;5.03;;;1.23;;
17714;SDS011;8977;50.902;4.314;2023-09-19T13:11:39;4.75;;;1.10;;
17714;SDS011;8977;50.902;4.314;2023-09-19T13:14:18;4.03;;;1.00;;
17714;SDS011;8977;50.902;4.314;2023-09-19T13:16:54;2.40;;;1.10;;
17714;SDS011;8977;50.902;4.314;2023-09-19T13:19:35;3.72;;;1.27;;
17714;SDS011;8977;50.902;4.314;2023-09-19T13:22:04;5.57;;;1.52;;
17714;SDS011;8977;50.902;4.314;2023-09-19T13:24:33;3.75;;;0.88;;
17714;SDS011;8977;50.902;4.314;2023-09-19T13:27:05;2.60;;;0.88;;
17714;SDS011;8977;50.902;4.314;2023-09-19T13:29:32;4.82;;;1.10;;
17714;SDS011;8977;50.902;4.314;2023-09-19T13:32:01;5.63;;;1.10;;
17714;SDS011;8977;50.902;4.314;2023-09-19T13:34:29;4.65;;;1.10;;
17714;SDS011;8977;50.902;4.314;2023-09-19T13:36:56;3.72;;;1.13;;
17714;SDS011;8977;50.902;4.314;2023-09-19T13:39:24;2.10;;;1.15;;
17714;SDS011;8977;50.902;4.314;2023-09-19T13:41:51;1.98;;;1.05;;
17714;SDS011;8977;50.902;4.314;2023-09-19T13:44:18;3.88;;;1.00;;
17714;SDS011;8977;50.902;4.314;2023-09-19T13:46:45;3.72;;;1.23;;
17714;SDS011;8977;50.902;4.314;2023-09-19T13:49:13;3.42;;;1.25;;
17714;SDS011;8977;50.902;4.314;2023-09-19T13:51:40;4.50;;;1.45;;
17714;SDS011;8977;50.902;4.314;2023-09-19T13:54:09;6.63;;;1.38;;
17714;SDS011;8977;50.902;4.314;2023-09-19T13:56:37;3.50;;;1.20;;
17714;SDS011;8977;50.902;4.314;2023-09-19T13:59:04;3.50;;;1.13;;
17714;SDS011;8977;50.902;4.314;2023-09-19T14:01:31;3.85;;;1.30;;
17714;SDS011;8977;50.902;4.314;2023-09-19T14:03:58;3.60;;;1.20;;
17714;SDS011;8977;50.902;4.314;2023-09-19T14:06:27;3.58;;;1.52;;
17714;SDS011;8977;50.902;4.314;2023-09-19T14:08:53;3.70;;;1.45;;
17714;SDS011;8977;50.902;4.314;2023-09-19T14:11:20;3.65;;;1.58;;
17714;SDS011;8977;50.902;4.314;2023-09-19T14:13:47;4.00;;;1.55;;
17714;SDS011;8977;50.902;4.314;2023-09-19T14:16:15;3.85;;;1.63;;
17714;SDS011;8977;50.902;4.314;2023-09-19T14:18:44;5.47;;;1.52;;
17714;SDS011;8977;50.902;4.314;2023-09-19T14:21:12;7.38;;;1.70;;
17714;SDS011;8977;50.902;4.314;2023-09-19T14:23:41;4.93;;;1.50;;
17714;SDS011;8977;50.902;4.314;2023-09-19T14:26:09;4.25;;;1.38;;
17714;SDS011;8977;50.902;4.314;2023-09-19T14:28:36;4.53;;;1.50;;
17714;SDS011;8977;50.902;4.314;2023-09-19T14:31:05;3.65;;;1.40;;
17714;SDS011;8977;50.902;4.314;2023-09-19T14:33:32;2.80;;;1.30;;
17714;SDS011;8977;50.902;4.314;2023-09-19T14:36:02;3.60;;;1.58;;
17714;SDS011;8977;50.902;4.314;2023-09-19T14:38:30;3.67;;;1.48;;
17714;SDS011;8977;50.902;4.314;2023-09-19T14:41:00;4.68;;;1.40;;
17714;SDS011;8977;50.902;4.314;2023-09-19T14:43:28;3.28;;;1.20;;
17714;SDS011;8977;50.902;4.314;2023-09-19T14:45:55;2.03;;;1.35;;
17714;SDS011;8977;50.902;4.314;2023-09-19T14:48:23;5.13;;;1.63;;
17714;SDS011;8977;50.902;4.314;2023-09-19T14:50:50;4.13;;;1.58;;
17714;SDS011;8977;50.902;4.314;2023-09-19T14:53:18;3.63;;;1.40;;
17714;SDS011;8977;50.902;4.314;2023-09-19T14:55:45;6.90;;;1.80;;
17714;SDS011;8977;50.902;4.314;2023-09-19T14:58:18;4.88;;;1.48;;
17714;SDS011;8977;50.902;4.314;2023-09-19T15:00:46;4.28;;;1.55;;
17714;SDS011;8977;50.902;4.314;2023-09-19T15:03:13;5.15;;;1.50;;
17714;SDS011;8977;50.902;4.314;2023-09-19T15:05:40;3.92;;;1.33;;
17714;SDS011;8977;50.902;4.314;2023-09-19T15:08:07;3.78;;;1.33;;
17714;SDS011;8977;50.902;4.314;2023-09-19T15:10:34;3.38;;;1.33;;
17714;SDS011;8977;50.902;4.314;2023-09-19T15:13:01;6.57;;;1.63;;
17714;SDS011;8977;50.902;4.314;2023-09-19T15:15:30;5.47;;;2.03;;
17714;SDS011;8977;50.902;4.314;2023-09-19T15:17:58;5.00;;;1.55;;
17714;SDS011;8977;50.902;4.314;2023-09-19T15:20:24;4.18;;;1.50;;
17714;SDS011;8977;50.902;4.314;2023-09-19T15:22:52;5.40;;;1.60;;
17714;SDS011;8977;50.902;4.314;2023-09-19T15:25:19;4.47;;;1.80;;
17714;SDS011;8977;50.902;4.314;2023-09-19T15:27:46;5.82;;;1.63;;
17714;SDS011;8977;50.902;4.314;2023-09-19T15:30:15;3.22;;;1.50;;
17714;SDS011;8977;50.902;4.314;2023-09-19T15:32:43;4.32;;;1.67;;